sensor_id;sensor_type;location;lat;lon;timestamp;pressure;altitude;pressure_sealevel;temperature;humidity
37298;BME280;30517;51.932;4.278;2024-01-06T00:02:33;100488.75;;;9.64;70.94
37298;BME280;30517;51.932;4.278;2024-01-06T00:05:14;100509.78;;;9.70;71.13
37298;BME280;30517;51.932;4.278;2024-01-06T00:07:55;100437.97;;;9.25;71.49
37298;BME280;30517;51.932;4.278;2024-01-06T00:10:36;100493.13;;;9.58;70.93
37298;BME280;30517;51.932;4.278;2024-01-06T00:13:17;100508.91;;;9.64;71.48
37298;BME280;30517;51.932;4.278;2024-01-06T00:15:57;100506.31;;;9.59;70.89
37298;BME280;30517;51.932;4.278;2024-01-06T00:18:39;100519.44;;;9.68;71.16
37298;BME280;30517;51.932;4.278;2024-01-06T00:21:20;100497.59;;;9.48;71.44
37298;BME280;30517;51.932;4.278;2024-01-06T00:24:01;100527.38;;;9.62;71.34
37298;BME280;30517;51.932;4.278;2024-01-06T00:26:41;100514.22;;;9.55;71.28
37298;BME280;30517;51.932;4.278;2024-01-06T00:29:22;100548.41;;;9.64;71.45
37298;BME280;30517;51.932;4.278;2024-01-06T00:32:03;100527.34;;;9.65;71.35
37298;BME280;30517;51.932;4.278;2024-01-06T00:34:44;100514.28;;;9.25;71.80
37298;BME280;30517;51.932;4.278;2024-01-06T00:37:25;100497.59;;;9.36;71.25
37298;BME280;30517;51.932;4.278;2024-01-06T00:40:07;100493.19;;;9.45;70.96
37298;BME280;30517;51.932;4.278;2024-01-06T00:42:47;100524.72;;;9.61;71.44
37298;BME280;30517;51.932;4.278;2024-01-06T00:45:28;100528.22;;;9.61;71.12
37298;BME280;30517;51.932;4.278;2024-01-06T00:48:10;100522.13;;;9.56;70.99
37298;BME280;30517;51.932;4.278;2024-01-06T00:50:51;100516.84;;;9.53;71.28
37298;BME280;30517;51.932;4.278;2024-01-06T00:53:32;100523.88;;;9.59;71.05
37298;BME280;30517;51.932;4.278;2024-01-06T00:56:13;100520.38;;;9.49;71.06
37298;BME280;30517;51.932;4.278;2024-01-06T00:58:54;100538.81;;;9.53;71.53
37298;BME280;30517;51.932;4.278;2024-01-06T01:01:35;100527.41;;;9.47;71.53
37298;BME280;30517;51.932;4.278;2024-01-06T01:04:16;100546.69;;;9.57;71.04
37298;BME280;30517;51.932;4.278;2024-01-06T01:06:56;100547.56;;;9.60;70.92
37298;BME280;30517;51.932;4.278;2024-01-06T01:09:37;100540.56;;;9.50;70.98
37298;BME280;30517;51.932;4.278;2024-01-06T01:12:18;100544.09;;;9.44;71.23
37298;BME280;30517;51.932;4.278;2024-01-06T01:14:59;100542.34;;;9.48;70.78
37298;BME280;30517;51.932;4.278;2024-01-06T01:17:40;100545.84;;;9.41;71.43
37298;BME280;30517;51.932;4.278;2024-01-06T01:20:21;100567.75;;;9.55;71.29
37298;BME280;30517;51.932;4.278;2024-01-06T01:23:02;100580.03;;;9.58;71.34
37298;BME280;30517;51.932;4.278;2024-01-06T01:25:43;100569.53;;;9.47;71.45
37298;BME280;30517;51.932;4.278;2024-01-06T01:28:24;100587.06;;;9.59;70.98
37298;BME280;30517;51.932;4.278;2024-01-06T01:31:04;100591.47;;;9.53;70.92
37298;BME280;30517;51.932;4.278;2024-01-06T01:33:45;100604.63;;;9.52;71.43
37298;BME280;30517;51.932;4.278;2024-01-06T01:36:26;100600.25;;;9.42;71.36
37298;BME280;30517;51.932;4.278;2024-01-06T01:39:07;100607.28;;;9.50;71.04
37298;BME280;30517;51.932;4.278;2024-01-06T01:41:48;100584.47;;;9.31;71.24
37298;BME280;30517;51.932;4.278;2024-01-06T01:44:29;100618.69;;;9.54;71.28
37298;BME280;30517;51.932;4.278;2024-01-06T01:47:09;100595.00;;;9.23;71.34
37298;BME280;30517;51.932;4.278;2024-01-06T01:49:50;100638.88;;;9.35;71.62
37298;BME280;30517;51.932;4.278;2024-01-06T01:52:31;100618.69;;;8.96;72.26
37298;BME280;30517;51.932;4.278;2024-01-06T01:55:12;100622.19;;;9.01;72.80
37298;BME280;30517;51.932;4.278;2024-01-06T01:57:53;100609.94;;;9.07;72.09
37298;BME280;30517;51.932;4.278;2024-01-06T02:00:35;100617.81;;;8.95;72.32
37298;BME280;30517;51.932;4.278;2024-01-06T02:03:16;100583.59;;;8.80;72.55
37298;BME280;30517;51.932;4.278;2024-01-06T02:05:57;100628.34;;;8.92;72.47
37298;BME280;30517;51.932;4.278;2024-01-06T02:08:38;100635.34;;;9.04;72.76
37298;BME280;30517;51.932;4.278;2024-01-06T02:11:19;100610.78;;;8.73;72.96
37298;BME280;30517;51.932;4.278;2024-01-06T02:14:00;100645.00;;;8.80;73.01
37298;BME280;30517;51.932;4.278;2024-01-06T02:16:41;100651.09;;;8.72;74.01
37298;BME280;30517;51.932;4.278;2024-01-06T02:19:22;100664.25;;;8.79;73.42
37298;BME280;30517;51.932;4.278;2024-01-06T02:22:03;100648.47;;;8.73;73.25
37298;BME280;30517;51.932;4.278;2024-01-06T02:24:43;100651.13;;;8.78;72.96
37298;BME280;30517;51.932;4.278;2024-01-06T02:27:24;100647.59;;;8.68;72.99
37298;BME280;30517;51.932;4.278;2024-01-06T02:30:06;100658.16;;;9.09;72.47
37298;BME280;30517;51.932;4.278;2024-01-06T02:32:47;100676.59;;;9.02;71.92
37298;BME280;30517;51.932;4.278;2024-01-06T02:35:28;100667.81;;;8.97;72.26
37298;BME280;30517;51.932;4.278;2024-01-06T02:38:09;100673.97;;;9.20;71.59
37298;BME280;30517;51.932;4.278;2024-01-06T02:40:50;100670.47;;;9.27;71.86
37298;BME280;30517;51.932;4.278;2024-01-06T02:43:31;100682.72;;;9.39;71.11
37298;BME280;30517;51.932;4.278;2024-01-06T02:46:12;100677.47;;;9.19;71.51
37298;BME280;30517;51.932;4.278;2024-01-06T02:48:52;100706.38;;;9.04;72.27
37298;BME280;30517;51.932;4.278;2024-01-06T02:51:33;100685.34;;;8.95;72.05
37298;BME280;30517;51.932;4.278;2024-01-06T02:54:14;100709.94;;;9.21;71.76
37298;BME280;30517;51.932;4.278;2024-01-06T02:56:55;100701.13;;;9.04;71.87
37298;BME280;30517;51.932;4.278;2024-01-06T02:59:36;100716.00;;;8.90;73.01
37298;BME280;30517;51.932;4.278;2024-01-06T03:02:17;100723.91;;;8.86;72.50
37298;BME280;30517;51.932;4.278;2024-01-06T03:04:58;100708.16;;;9.00;72.03
37298;BME280;30517;51.932;4.278;2024-01-06T03:07:38;100697.56;;;8.71;72.88
37298;BME280;30517;51.932;4.278;2024-01-06T03:10:19;100703.78;;;9.05;71.80
37298;BME280;30517;51.932;4.278;2024-01-06T03:13:00;100704.66;;;9.11;71.79
37298;BME280;30517;51.932;4.278;2024-01-06T03:15:41;100705.53;;;9.11;71.55
37298;BME280;30517;51.932;4.278;2024-01-06T03:18:22;100697.56;;;8.77;72.35
37298;BME280;30517;51.932;4.278;2024-01-06T03:21:03;100696.75;;;9.01;71.59
37298;BME280;30517;51.932;4.278;2024-01-06T03:23:44;100719.50;;;8.79;72.75
37298;BME280;30517;51.932;4.278;2024-01-06T03:26:25;100711.66;;;9.01;71.50
37298;BME280;30517;51.932;4.278;2024-01-06T03:29:05;100698.47;;;8.84;71.90
37298;BME280;30517;51.932;4.278;2024-01-06T03:31:46;100694.09;;;8.88;71.80
37298;BME280;30517;51.932;4.278;2024-01-06T03:34:27;100730.09;;;9.15;71.08
37298;BME280;30517;51.932;4.278;2024-01-06T03:37:08;100742.38;;;9.20;71.51
37298;BME280;30517;51.932;4.278;2024-01-06T03:39:49;100735.31;;;8.89;71.40
37298;BME280;30517;51.932;4.278;2024-01-06T03:42:30;100754.56;;;8.72;72.90
37298;BME280;30517;51.932;4.278;2024-01-06T03:45:11;100757.97;;;8.60;73.43
37298;BME280;30517;51.932;4.278;2024-01-06T03:47:52;100735.16;;;8.50;73.27
37298;BME280;30517;51.932;4.278;2024-01-06T03:50:33;100695.56;;;8.23;73.21
37298;BME280;30517;51.932;4.278;2024-01-06T03:53:13;100726.47;;;8.62;72.44
37298;BME280;30517;51.932;4.278;2024-01-06T03:55:54;100751.13;;;8.99;71.47
37298;BME280;30517;51.932;4.278;2024-01-06T03:58:35;100766.84;;;8.78;72.57
37298;BME280;30517;51.932;4.278;2024-01-06T04:01:16;100781.63;;;8.54;73.15
37298;BME280;30517;51.932;4.278;2024-01-06T04:03:57;100781.66;;;8.62;73.72
37298;BME280;30517;51.932;4.278;2024-01-06T04:06:38;100751.75;;;8.41;73.30
37298;BME280;30517;51.932;4.278;2024-01-06T04:09:18;100792.28;;;8.86;72.09
37298;BME280;30517;51.932;4.278;2024-01-06T04:11:59;100769.38;;;8.58;72.83
37298;BME280;30517;51.932;4.278;2024-01-06T04:14:41;100788.75;;;8.81;72.25
37298;BME280;30517;51.932;4.278;2024-01-06T04:17:21;100799.25;;;8.74;72.51
37298;BME280;30517;51.932;4.278;2024-01-06T04:20:03;100792.22;;;8.71;72.23
37298;BME280;30517;51.932;4.278;2024-01-06T04:22:44;100792.31;;;8.96;71.55
37298;BME280;30517;51.932;4.278;2024-01-06T04:25:25;100757.19;;;8.75;71.21
37298;BME280;30517;51.932;4.278;2024-01-06T04:28:06;100797.59;;;8.99;71.34
37298;BME280;30517;51.932;4.278;2024-01-06T04:30:47;100803.72;;;8.96;71.65
37298;BME280;30517;51.932;4.278;2024-01-06T04:33:27;100786.16;;;8.91;71.47
37298;BME280;30517;51.932;4.278;2024-01-06T04:36:08;100811.63;;;9.04;70.80
37298;BME280;30517;51.932;4.278;2024-01-06T04:38:49;100796.69;;;8.91;71.38
37298;BME280;30517;51.932;4.278;2024-01-06T04:41:30;100771.19;;;8.70;71.38
37298;BME280;30517;51.932;4.278;2024-01-06T04:44:14;100799.28;;;8.84;71.09
37298;BME280;30517;51.932;4.278;2024-01-06T04:46:54;100830.94;;;9.00;71.05
37298;BME280;30517;51.932;4.278;2024-01-06T04:49:35;100826.50;;;8.86;71.43
37298;BME280;30517;51.932;4.278;2024-01-06T04:52:16;100817.72;;;8.89;71.38
37298;BME280;30517;51.932;4.278;2024-01-06T04:54:57;100830.88;;;8.88;71.53
37298;BME280;30517;51.932;4.278;2024-01-06T04:57:38;100819.50;;;8.96;70.63
37298;BME280;30517;51.932;4.278;2024-01-06T05:00:19;100856.38;;;9.05;71.11
37298;BME280;30517;51.932;4.278;2024-01-06T05:03:00;100827.28;;;8.72;71.58
37298;BME280;30517;51.932;4.278;2024-01-06T05:05:40;100832.66;;;8.89;71.28
37298;BME280;30517;51.932;4.278;2024-01-06T05:08:22;100851.91;;;8.84;71.21
37298;BME280;30517;51.932;4.278;2024-01-06T05:11:06;100846.66;;;8.88;71.01
37298;BME280;30517;51.932;4.278;2024-01-06T05:13:47;100873.03;;;9.06;70.57
37298;BME280;30517;51.932;4.278;2024-01-06T05:16:27;100844.00;;;8.84;71.44
37298;BME280;30517;51.932;4.278;2024-01-06T05:19:08;100844.91;;;8.86;70.61
37298;BME280;30517;51.932;4.278;2024-01-06T05:21:49;100872.94;;;8.81;71.25
37298;BME280;30517;51.932;4.278;2024-01-06T05:24:30;100868.50;;;8.70;71.75
37298;BME280;30517;51.932;4.278;2024-01-06T05:27:11;100850.09;;;8.77;71.75
37298;BME280;30517;51.932;4.278;2024-01-06T05:29:52;100877.31;;;8.81;71.92
37298;BME280;30517;51.932;4.278;2024-01-06T05:32:33;100811.28;;;8.36;71.56
37298;BME280;30517;51.932;4.278;2024-01-06T05:35:16;100859.75;;;8.78;71.42
37298;BME280;30517;51.932;4.278;2024-01-06T05:37:57;100887.88;;;8.89;71.15
37298;BME280;30517;51.932;4.278;2024-01-06T05:40:38;100872.97;;;8.86;71.43
37298;BME280;30517;51.932;4.278;2024-01-06T05:43:19;100871.19;;;8.83;70.83
37298;BME280;30517;51.932;4.278;2024-01-06T05:46:00;100879.91;;;8.76;70.84
37298;BME280;30517;51.932;4.278;2024-01-06T05:48:40;100872.03;;;8.76;71.35
37298;BME280;30517;51.932;4.278;2024-01-06T05:51:22;100873.69;;;8.59;71.71
37298;BME280;30517;51.932;4.278;2024-01-06T05:54:03;100835.88;;;8.40;71.27
37298;BME280;30517;51.932;4.278;2024-01-06T05:56:44;100908.72;;;8.58;72.15
37298;BME280;30517;51.932;4.278;2024-01-06T05:59:24;100873.63;;;8.53;71.95
37298;BME280;30517;51.932;4.278;2024-01-06T06:02:05;100892.16;;;8.74;71.45
37298;BME280;30517;51.932;4.278;2024-01-06T06:04:46;100908.75;;;8.64;72.18
37298;BME280;30517;51.932;4.278;2024-01-06T06:07:27;100899.22;;;8.75;70.66
37298;BME280;30517;51.932;4.278;2024-01-06T06:10:11;100922.81;;;8.68;71.91
37298;BME280;30517;51.932;4.278;2024-01-06T06:12:52;100901.81;;;8.72;71.09
37298;BME280;30517;51.932;4.278;2024-01-06T06:15:33;100904.38;;;8.63;71.14
37298;BME280;30517;51.932;4.278;2024-01-06T06:18:13;100911.44;;;8.72;71.34
37298;BME280;30517;51.932;4.278;2024-01-06T06:20:54;100933.44;;;8.81;70.88
37298;BME280;30517;51.932;4.278;2024-01-06T06:23:35;100936.03;;;8.83;70.40
37298;BME280;30517;51.932;4.278;2024-01-06T06:26:16;100956.81;;;8.45;72.56
37298;BME280;30517;51.932;4.278;2024-01-06T06:28:57;100960.38;;;8.53;71.60
37298;BME280;30517;51.932;4.278;2024-01-06T06:31:38;100946.19;;;8.35;72.11
37298;BME280;30517;51.932;4.278;2024-01-06T06:34:19;100962.25;;;8.69;71.33
37298;BME280;30517;51.932;4.278;2024-01-06T06:37:00;100964.56;;;8.32;72.50
37298;BME280;30517;51.932;4.278;2024-01-06T06:39:40;100969.75;;;8.26;72.60
37298;BME280;30517;51.932;4.278;2024-01-06T06:42:24;100979.41;;;8.29;73.17
37298;BME280;30517;51.932;4.278;2024-01-06T06:45:06;100944.53;;;8.44;72.04
37298;BME280;30517;51.932;4.278;2024-01-06T06:47:48;100956.97;;;8.61;71.28
37298;BME280;30517;51.932;4.278;2024-01-06T06:50:29;100971.03;;;8.71;70.79
37298;BME280;30517;51.932;4.278;2024-01-06T06:53:10;100989.38;;;8.59;71.32
37298;BME280;30517;51.932;4.278;2024-01-06T06:55:53;100985.06;;;8.67;70.82
37298;BME280;30517;51.932;4.278;2024-01-06T06:58:33;100976.22;;;8.59;71.12
37298;BME280;30517;51.932;4.278;2024-01-06T07:01:15;100972.69;;;8.57;70.60
37298;BME280;30517;51.932;4.278;2024-01-06T07:03:56;100938.28;;;8.32;70.68
37298;BME280;30517;51.932;4.278;2024-01-06T07:06:37;100968.94;;;8.33;71.77
37298;BME280;30517;51.932;4.278;2024-01-06T07:09:18;101011.34;;;8.69;70.62
37298;BME280;30517;51.932;4.278;2024-01-06T07:11:59;100987.47;;;8.44;71.18
37298;BME280;30517;51.932;4.278;2024-01-06T07:14:40;101033.16;;;8.55;71.67
37298;BME280;30517;51.932;4.278;2024-01-06T07:17:20;101000.63;;;8.44;71.47
37298;BME280;30517;51.932;4.278;2024-01-06T07:20:01;101039.38;;;8.65;70.91
37298;BME280;30517;51.932;4.278;2024-01-06T07:22:43;101040.22;;;8.64;70.69
37298;BME280;30517;51.932;4.278;2024-01-06T07:25:24;101010.97;;;8.30;71.09
37298;BME280;30517;51.932;4.278;2024-01-06T07:28:05;101034.56;;;8.21;72.03
37298;BME280;30517;51.932;4.278;2024-01-06T07:30:46;101028.09;;;7.91;72.73
37298;BME280;30517;51.932;4.278;2024-01-06T07:33:27;101061.94;;;8.41;72.12
37298;BME280;30517;51.932;4.278;2024-01-06T07:36:08;101068.28;;;8.62;71.00
37298;BME280;30517;51.932;4.278;2024-01-06T07:38:49;101039.75;;;8.16;71.76
37298;BME280;30517;51.932;4.278;2024-01-06T07:41:31;101056.28;;;8.06;72.37
37298;BME280;30517;51.932;4.278;2024-01-06T07:44:12;101057.91;;;7.95;72.50
37298;BME280;30517;51.932;4.278;2024-01-06T07:46:53;101058.72;;;7.89;73.29
37298;BME280;30517;51.932;4.278;2024-01-06T07:49:34;101077.72;;;8.41;71.32
37298;BME280;30517;51.932;4.278;2024-01-06T07:52:15;101077.28;;;8.05;72.60
37298;BME280;30517;51.932;4.278;2024-01-06T07:54:56;101099.22;;;8.08;72.71
37298;BME280;30517;51.932;4.278;2024-01-06T07:57:37;101098.25;;;8.02;73.04
37298;BME280;30517;51.932;4.278;2024-01-06T08:00:17;101109.75;;;8.11;72.99
37298;BME280;30517;51.932;4.278;2024-01-06T08:02:58;101091.16;;;7.94;72.22
37298;BME280;30517;51.932;4.278;2024-01-06T08:05:40;101114.78;;;7.91;73.71
37298;BME280;30517;51.932;4.278;2024-01-06T08:08:21;101098.03;;;7.83;72.83
37298;BME280;30517;51.932;4.278;2024-01-06T08:11:02;101074.97;;;7.59;73.06
37298;BME280;30517;51.932;4.278;2024-01-06T08:13:43;101123.41;;;7.84;73.58
37298;BME280;30517;51.932;4.278;2024-01-06T08:16:24;101107.63;;;7.81;73.16
37298;BME280;30517;51.932;4.278;2024-01-06T08:19:04;101145.31;;;7.83;73.02
37298;BME280;30517;51.932;4.278;2024-01-06T08:21:45;101095.97;;;7.61;73.33
37298;BME280;30517;51.932;4.278;2024-01-06T08:24:27;101132.91;;;7.73;73.14
37298;BME280;30517;51.932;4.278;2024-01-06T08:27:08;101140.28;;;8.02;72.21
37298;BME280;30517;51.932;4.278;2024-01-06T08:29:49;101143.88;;;8.10;72.16
37298;BME280;30517;51.932;4.278;2024-01-06T08:32:30;101133.78;;;7.73;72.38
37298;BME280;30517;51.932;4.278;2024-01-06T08:35:11;101178.81;;;8.01;73.24
37298;BME280;30517;51.932;4.278;2024-01-06T08:37:52;101143.03;;;8.11;71.92
37298;BME280;30517;51.932;4.278;2024-01-06T08:40:34;101164.28;;;8.29;71.13
37298;BME280;30517;51.932;4.278;2024-01-06T08:43:15;101167.88;;;8.36;71.19
37298;BME280;30517;51.932;4.278;2024-01-06T08:45:56;101177.53;;;8.38;71.18
37298;BME280;30517;51.932;4.278;2024-01-06T08:48:37;101135.22;;;8.17;71.23
37298;BME280;30517;51.932;4.278;2024-01-06T08:51:18;101178.28;;;8.27;71.47
37298;BME280;30517;51.932;4.278;2024-01-06T08:54:00;101169.38;;;8.17;71.31
37298;BME280;30517;51.932;4.278;2024-01-06T08:56:44;101159.72;;;8.13;71.24
37298;BME280;30517;51.932;4.278;2024-01-06T08:59:25;101166.84;;;8.26;71.05
37298;BME280;30517;51.932;4.278;2024-01-06T09:02:06;101180.94;;;8.31;71.19
37298;BME280;30517;51.932;4.278;2024-01-06T09:04:47;101174.38;;;7.98;71.74
37298;BME280;30517;51.932;4.278;2024-01-06T09:07:28;101178.00;;;8.05;71.49
37298;BME280;30517;51.932;4.278;2024-01-06T09:10:09;101192.91;;;8.08;71.66
37298;BME280;30517;51.932;4.278;2024-01-06T09:12:50;101190.94;;;7.91;71.44
37298;BME280;30517;51.932;4.278;2024-01-06T09:15:31;101217.47;;;8.11;72.07
37298;BME280;30517;51.932;4.278;2024-01-06T09:18:12;101206.88;;;8.04;71.89
37298;BME280;30517;51.932;4.278;2024-01-06T09:20:53;101220.06;;;8.08;72.08
37298;BME280;30517;51.932;4.278;2024-01-06T09:23:34;101224.44;;;8.08;71.81
37298;BME280;30517;51.932;4.278;2024-01-06T09:26:15;101238.91;;;7.80;72.41
37298;BME280;30517;51.932;4.278;2024-01-06T09:28:56;101221.28;;;7.71;73.05
37298;BME280;30517;51.932;4.278;2024-01-06T09:31:37;101238.97;;;7.84;72.81
37298;BME280;30517;51.932;4.278;2024-01-06T09:34:18;101234.13;;;8.10;71.12
37298;BME280;30517;51.932;4.278;2024-01-06T09:36:59;101245.16;;;7.88;72.56
37298;BME280;30517;51.932;4.278;2024-01-06T09:39:40;101261.03;;;7.95;71.95
37298;BME280;30517;51.932;4.278;2024-01-06T09:42:21;101230.97;;;7.75;72.41
37298;BME280;30517;51.932;4.278;2024-01-06T09:45:02;101258.59;;;8.08;71.77
37298;BME280;30517;51.932;4.278;2024-01-06T09:47:48;101263.25;;;8.27;71.03
37298;BME280;30517;51.932;4.278;2024-01-06T09:50:30;101262.06;;;8.07;71.00
37298;BME280;30517;51.932;4.278;2024-01-06T09:53:12;101275.38;;;8.17;71.58
37298;BME280;30517;51.932;4.278;2024-01-06T09:55:55;101283.31;;;8.22;71.15
37298;BME280;30517;51.932;4.278;2024-01-06T09:58:37;101260.44;;;8.15;70.96
37298;BME280;30517;51.932;4.278;2024-01-06T10:01:19;101289.25;;;8.09;71.64
37298;BME280;30517;51.932;4.278;2024-01-06T10:04:00;101293.47;;;7.99;72.07
37298;BME280;30517;51.932;4.278;2024-01-06T10:06:41;101291.16;;;8.19;71.12
37298;BME280;30517;51.932;4.278;2024-01-06T10:09:31;101274.16;;;7.94;71.76
37298;BME280;30517;51.932;4.278;2024-01-06T10:12:12;101275.66;;;7.80;72.34
37298;BME280;30517;51.932;4.278;2024-01-06T10:14:56;101305.91;;;8.09;71.76
37298;BME280;30517;51.932;4.278;2024-01-06T10:17:41;101315.66;;;8.16;71.55
37298;BME280;30517;51.932;4.278;2024-01-06T10:20:22;101308.38;;;7.98;71.87
37298;BME280;30517;51.932;4.278;2024-01-06T10:23:06;101276.00;;;8.01;70.75
37298;BME280;30517;51.932;4.278;2024-01-06T10:25:47;101278.47;;;7.89;70.80
37298;BME280;30517;51.932;4.278;2024-01-06T10:28:28;101314.22;;;7.82;72.14
37298;BME280;30517;51.932;4.278;2024-01-06T10:31:09;101278.16;;;7.70;72.50
37298;BME280;30517;51.932;4.278;2024-01-06T10:33:50;101317.91;;;7.93;71.78
37298;BME280;30517;51.932;4.278;2024-01-06T10:36:31;101300.47;;;7.97;71.40
37298;BME280;30517;51.932;4.278;2024-01-06T10:39:12;101317.81;;;7.87;71.88
37298;BME280;30517;51.932;4.278;2024-01-06T10:41:56;101324.47;;;8.20;71.30
37298;BME280;30517;51.932;4.278;2024-01-06T10:44:39;101335.63;;;8.05;71.55
37298;BME280;30517;51.932;4.278;2024-01-06T10:47:20;101327.63;;;7.99;71.54
37298;BME280;30517;51.932;4.278;2024-01-06T10:50:01;101329.69;;;8.17;71.15
37298;BME280;30517;51.932;4.278;2024-01-06T10:52:43;101325.13;;;8.05;70.65
37298;BME280;30517;51.932;4.278;2024-01-06T10:55:25;101320.91;;;8.16;70.28
37298;BME280;30517;51.932;4.278;2024-01-06T10:58:07;101299.34;;;7.81;71.27
37298;BME280;30517;51.932;4.278;2024-01-06T11:00:49;101346.22;;;8.11;71.04
37298;BME280;30517;51.932;4.278;2024-01-06T11:03:30;101328.66;;;8.09;70.83
37298;BME280;30517;51.932;4.278;2024-01-06T11:06:11;101329.50;;;8.05;70.50
37298;BME280;30517;51.932;4.278;2024-01-06T11:09:09;101345.88;;;7.90;71.28
37298;BME280;30517;51.932;4.278;2024-01-06T11:11:53;101349.25;;;7.83;72.20
37298;BME280;30517;51.932;4.278;2024-01-06T11:14:37;101348.31;;;7.79;72.52
37298;BME280;30517;51.932;4.278;2024-01-06T11:17:53;101358.00;;;7.82;72.05
37298;BME280;30517;51.932;4.278;2024-01-06T11:20:35;101337.22;;;7.95;71.44
37298;BME280;30517;51.932;4.278;2024-01-06T11:23:17;101357.31;;;7.93;71.82
37298;BME280;30517;51.932;4.278;2024-01-06T11:26:01;101359.09;;;7.94;71.85
37298;BME280;30517;51.932;4.278;2024-01-06T11:28:46;101364.44;;;8.01;71.75
37298;BME280;30517;51.932;4.278;2024-01-06T11:31:31;101346.84;;;7.95;71.24
37298;BME280;30517;51.932;4.278;2024-01-06T11:34:18;101346.09;;;8.04;70.94
37298;BME280;30517;51.932;4.278;2024-01-06T11:37:00;101352.84;;;7.86;71.88
37298;BME280;30517;51.932;4.278;2024-01-06T11:39:41;101366.16;;;7.97;71.79
37298;BME280;30517;51.932;4.278;2024-01-06T11:55:26;101366.75;;;7.82;72.50
37298;BME280;30517;51.932;4.278;2024-01-06T11:58:16;101324.22;;;7.53;72.33
37298;BME280;30517;51.932;4.278;2024-01-06T12:00:57;101332.47;;;7.73;71.84
37298;BME280;30517;51.932;4.278;2024-01-06T12:03:38;101375.66;;;7.89;71.96
37298;BME280;30517;51.932;4.278;2024-01-06T12:06:20;101339.34;;;7.66;71.88
37298;BME280;30517;51.932;4.278;2024-01-06T12:09:08;101341.31;;;7.78;71.80
37298;BME280;30517;51.932;4.278;2024-01-06T12:12:00;101358.78;;;7.76;72.01
37298;BME280;30517;51.932;4.278;2024-01-06T12:14:42;101358.44;;;8.09;70.71
37298;BME280;30517;51.932;4.278;2024-01-06T12:17:28;101345.31;;;8.08;70.28
37298;BME280;30517;51.932;4.278;2024-01-06T12:20:10;101338.13;;;7.97;70.83
37298;BME280;30517;51.932;4.278;2024-01-06T12:22:52;101357.13;;;7.81;71.82
37298;BME280;30517;51.932;4.278;2024-01-06T12:25:34;101348.47;;;7.87;71.45
37298;BME280;30517;51.932;4.278;2024-01-06T12:28:15;101363.44;;;7.92;71.17
37298;BME280;30517;51.932;4.278;2024-01-06T12:30:56;101361.72;;;7.94;70.78
37298;BME280;30517;51.932;4.278;2024-01-06T12:33:41;101360.84;;;7.95;71.06
37298;BME280;30517;51.932;4.278;2024-01-06T12:36:22;101347.63;;;7.91;71.13
37298;BME280;30517;51.932;4.278;2024-01-06T12:39:03;101379.38;;;8.03;70.80
37298;BME280;30517;51.932;4.278;2024-01-06T12:41:44;101357.22;;;7.87;71.81
37298;BME280;30517;51.932;4.278;2024-01-06T12:44:26;101369.19;;;7.70;71.88
37298;BME280;30517;51.932;4.278;2024-01-06T12:47:08;101377.66;;;8.05;71.20
37298;BME280;30517;51.932;4.278;2024-01-06T12:49:48;101370.66;;;8.06;70.73
37298;BME280;30517;51.932;4.278;2024-01-06T12:52:29;101376.63;;;7.95;71.31
37298;BME280;30517;51.932;4.278;2024-01-06T12:55:10;101374.88;;;7.96;70.82
37298;BME280;30517;51.932;4.278;2024-01-06T12:57:51;101365.19;;;7.92;71.09
37298;BME280;30517;51.932;4.278;2024-01-06T13:00:32;101377.63;;;8.02;71.17
37298;BME280;30517;51.932;4.278;2024-01-06T13:03:13;101367.72;;;7.87;71.24
37298;BME280;30517;51.932;4.278;2024-01-06T13:05:54;101379.97;;;7.87;71.46
37298;BME280;30517;51.932;4.278;2024-01-06T13:08:35;101377.06;;;7.71;71.93
37298;BME280;30517;51.932;4.278;2024-01-06T13:11:17;101366.53;;;7.68;72.35
37298;BME280;30517;51.932;4.278;2024-01-06T13:13:58;101357.22;;;7.87;70.81
37298;BME280;30517;51.932;4.278;2024-01-06T13:16:39;101383.72;;;8.00;71.35
37298;BME280;30517;51.932;4.278;2024-01-06T13:19:20;101357.25;;;7.90;70.42
37298;BME280;30517;51.932;4.278;2024-01-06T13:22:01;101377.50;;;7.96;70.62
37298;BME280;30517;51.932;4.278;2024-01-06T13:24:42;101382.16;;;8.12;70.26
37298;BME280;30517;51.932;4.278;2024-01-06T13:27:23;101386.16;;;7.89;71.13
37298;BME280;30517;51.932;4.278;2024-01-06T13:30:04;101393.41;;;8.04;70.47
37298;BME280;30517;51.932;4.278;2024-01-06T13:32:45;101394.00;;;7.87;70.74
37298;BME280;30517;51.932;4.278;2024-01-06T13:35:26;101375.69;;;7.93;71.16
37298;BME280;30517;51.932;4.278;2024-01-06T13:38:09;101408.00;;;7.86;71.02
37298;BME280;30517;51.932;4.278;2024-01-06T13:40:49;101404.22;;;7.72;72.45
37298;BME280;30517;51.932;4.278;2024-01-06T13:43:32;101380.38;;;7.61;71.58
37298;BME280;30517;51.932;4.278;2024-01-06T13:46:13;101363.91;;;7.68;70.97
37298;BME280;30517;51.932;4.278;2024-01-06T13:48:54;101402.94;;;7.98;70.66
37298;BME280;30517;51.932;4.278;2024-01-06T13:51:34;101401.97;;;7.93;70.85
37298;BME280;30517;51.932;4.278;2024-01-06T13:54:16;101409.91;;;7.96;70.41
37298;BME280;30517;51.932;4.278;2024-01-06T13:56:57;101396.47;;;7.80;71.09
37298;BME280;30517;51.932;4.278;2024-01-06T13:59:37;101372.78;;;7.75;70.97
37298;BME280;30517;51.932;4.278;2024-01-06T14:02:23;101428.19;;;7.90;71.18
37298;BME280;30517;51.932;4.278;2024-01-06T14:05:04;101429.28;;;8.03;70.33
37298;BME280;30517;51.932;4.278;2024-01-06T14:07:48;101412.38;;;7.87;70.78
37298;BME280;30517;51.932;4.278;2024-01-06T14:10:30;101409.84;;;7.92;70.97
37298;BME280;30517;51.932;4.278;2024-01-06T14:13:11;101420.41;;;7.96;70.47
37298;BME280;30517;51.932;4.278;2024-01-06T14:15:52;101405.66;;;7.54;70.77
37298;BME280;30517;51.932;4.278;2024-01-06T14:18:33;101412.44;;;7.43;70.73
37298;BME280;30517;51.932;4.278;2024-01-06T14:21:14;101430.69;;;7.37;71.64
37298;BME280;30517;51.932;4.278;2024-01-06T14:23:55;101424.19;;;7.20;71.93
37298;BME280;30517;51.932;4.278;2024-01-06T14:26:36;101431.44;;;7.31;71.80
37298;BME280;30517;51.932;4.278;2024-01-06T14:29:19;101420.56;;;7.57;70.79